createdAt,value
2019-05-17T00:00:17.424Z,12.42
2019-05-17T00:02:46.577Z,12.32
2019-05-17T00:05:17.488Z,12.25
2019-05-17T00:07:47.592Z,12.68
2019-05-17T00:10:17.391Z,12.85
2019-05-17T00:12:47.225Z,12.83
2019-05-17T00:15:17.009Z,13.02
2019-05-17T00:17:46.937Z,13.17
2019-05-17T00:20:17.467Z,13.04
2019-05-17T00:22:47.169Z,13.20
2019-05-17T00:25:17.018Z,13.01
2019-05-17T00:27:47.512Z,12.93
2019-05-17T00:30:17.518Z,13.14
2019-05-17T00:32:47.553Z,13.28
2019-05-17T00:35:17.833Z,13.29
2019-05-17T00:37:46.709Z,13.45
2019-05-17T00:40:16.581Z,13.56
2019-05-17T00:42:46.602Z,13.62
2019-05-17T00:45:17.602Z,13.44
2019-05-17T00:47:46.797Z,13.49
2019-05-17T00:50:17.068Z,13.39
2019-05-17T00:52:47.533Z,13.37
2019-05-17T00:55:17.716Z,13.09
2019-05-17T00:57:47.540Z,13.15
2019-05-17T01:00:17.056Z,13.10
2019-05-17T01:02:46.776Z,13.17
2019-05-17T01:05:17.065Z,13.30
2019-05-17T01:07:47.101Z,12.99
2019-05-17T01:10:16.666Z,12.97
2019-05-17T01:12:45.285Z,12.29
2019-05-17T01:15:16.778Z,11.93
2019-05-17T01:17:47.355Z,12.11
2019-05-17T01:20:17.377Z,12.00
2019-05-17T01:22:47.547Z,12.21
2019-05-17T01:25:17.232Z,12.27
2019-05-17T01:27:47.448Z,12.19
2019-05-17T01:30:17.541Z,12.01
2019-05-17T01:32:46.587Z,12.39
2019-05-17T01:35:16.782Z,12.57
2019-05-17T01:37:47.431Z,12.78
2019-05-17T01:40:17.785Z,12.79
2019-05-17T01:42:46.689Z,12.97
2019-05-17T01:45:16.712Z,13.12
2019-05-17T01:47:47.558Z,13.22
2019-05-17T01:50:17.560Z,13.34
2019-05-17T01:52:46.403Z,13.37
2019-05-17T01:55:17.180Z,13.15
2019-05-17T01:57:47.416Z,13.04
2019-05-17T02:00:17.530Z,13.11
2019-05-17T02:02:47.356Z,12.70
2019-05-17T02:05:17.287Z,12.32
2019-05-17T02:07:46.746Z,12.56
2019-05-17T02:10:16.711Z,12.76
2019-05-17T02:12:48.938Z,12.96
2019-05-17T02:15:16.580Z,12.90
2019-05-17T02:17:46.948Z,13.05
2019-05-17T02:20:17.113Z,12.90
2019-05-17T02:22:47.343Z,12.84
2019-05-17T02:25:17.301Z,12.51
2019-05-17T02:27:45.832Z,12.51
2019-05-17T02:30:14.809Z,12.47
2019-05-17T02:32:43.997Z,12.61
2019-05-17T02:35:14.289Z,12.25
2019-05-17T02:37:43.566Z,11.94
2019-05-17T02:40:14.467Z,12.05
2019-05-17T02:42:43.452Z,12.13
2019-05-17T02:45:13.264Z,12.42
2019-05-17T02:47:43.633Z,12.38
2019-05-17T02:50:13.010Z,12.52
2019-05-17T02:52:43.495Z,12.57
2019-05-17T02:55:12.907Z,12.59
2019-05-17T02:57:43.363Z,12.67
2019-05-17T03:00:13.325Z,12.77
2019-05-17T03:02:43.864Z,12.71
2019-05-17T03:05:13.142Z,12.71
2019-05-17T03:07:43.874Z,12.68
2019-05-17T03:10:22.133Z,12.69
2019-05-17T03:12:44.388Z,12.60
2019-05-17T03:15:13.123Z,12.17
2019-05-17T03:17:43.301Z,12.13
2019-05-17T03:20:13.240Z,11.68
2019-05-17T03:22:43.856Z,11.63
2019-05-17T03:25:13.798Z,11.74
2019-05-17T03:27:43.077Z,11.97
2019-05-17T03:30:16.919Z,11.73
2019-05-17T03:32:47.174Z,11.56
2019-05-17T03:35:16.020Z,12.01
2019-05-17T03:37:43.906Z,11.80
2019-05-17T03:40:27.330Z,11.56
2019-05-17T03:42:43.181Z,11.46
2019-05-17T03:45:13.655Z,11.54
2019-05-17T03:47:44.540Z,11.63
2019-05-17T03:50:13.483Z,11.98
2019-05-17T03:52:44.492Z,11.83
2019-05-17T03:55:13.528Z,11.92
2019-05-17T03:57:44.183Z,11.70
2019-05-17T04:00:13.326Z,11.94
2019-05-17T04:02:44.549Z,11.59
2019-05-17T04:05:13.424Z,11.81
2019-05-17T04:07:43.690Z,11.75
2019-05-17T04:10:15.074Z,11.90
2019-05-17T04:12:44.069Z,11.63
2019-05-17T04:15:13.645Z,11.89
2019-05-17T04:17:43.797Z,11.61
2019-05-17T04:20:13.845Z,11.77
2019-05-17T04:22:44.362Z,11.98
2019-05-17T04:25:13.621Z,11.70
2019-05-17T04:27:44.058Z,11.41
2019-05-17T04:30:13.936Z,11.63
2019-05-17T04:32:44.203Z,11.49
2019-05-17T04:35:13.783Z,11.55
2019-05-17T04:37:44.384Z,11.32
2019-05-17T04:40:14.251Z,11.23
2019-05-17T04:42:44.190Z,11.53
2019-05-17T04:45:13.189Z,11.76
2019-05-17T04:47:44.251Z,12.17
2019-05-17T04:50:13.530Z,12.09
2019-05-17T04:52:43.665Z,12.21
2019-05-17T04:55:13.665Z,12.39
2019-05-17T04:57:43.900Z,12.54
2019-05-17T05:00:13.431Z,12.09
2019-05-17T05:02:43.650Z,11.88
2019-05-17T05:05:13.376Z,11.77
2019-05-17T05:07:43.149Z,11.81
2019-05-17T05:10:13.516Z,11.83
2019-05-17T05:12:43.599Z,12.08
2019-05-17T05:15:12.989Z,12.08
2019-05-17T05:17:42.506Z,12.12
2019-05-17T05:20:13.248Z,12.44
2019-05-17T05:22:42.905Z,12.01
2019-05-17T05:25:12.393Z,12.08
2019-05-17T05:27:42.683Z,12.05
2019-05-17T05:30:12.072Z,11.38
2019-05-17T05:32:42.583Z,11.51
2019-05-17T05:35:12.368Z,11.70
2019-05-17T05:37:42.508Z,11.55
2019-05-17T05:40:12.604Z,11.39
2019-05-17T05:42:42.687Z,11.20
2019-05-17T05:45:12.092Z,11.33
2019-05-17T05:47:41.528Z,11.29
2019-05-17T05:50:12.548Z,11.33
2019-05-17T05:52:42.281Z,11.19
2019-05-17T05:55:12.265Z,11.41
2019-05-17T05:57:42.035Z,11.15
2019-05-17T06:00:12.734Z,11.14
2019-05-17T06:02:42.014Z,11.05
2019-05-17T06:05:14.761Z,11.22
2019-05-17T06:07:41.690Z,11.31
2019-05-17T06:10:12.794Z,11.28
2019-05-17T06:12:42.991Z,11.10
2019-05-17T06:15:12.616Z,11.15
2019-05-17T06:17:42.837Z,11.10
2019-05-17T06:20:11.849Z,11.07
2019-05-17T06:22:42.507Z,11.12
2019-05-17T06:25:15.220Z,11.40
2019-05-17T06:27:41.616Z,11.34
2019-05-17T06:30:12.529Z,11.14
2019-05-17T06:32:43.457Z,11.28
2019-05-17T06:35:12.617Z,11.33
2019-05-17T06:37:42.387Z,11.31
2019-05-17T06:40:13.145Z,11.63
2019-05-17T06:42:44.991Z,11.50
2019-05-17T06:45:12.499Z,11.54
2019-05-17T06:47:42.610Z,11.27
2019-05-17T06:50:13.933Z,11.46
2019-05-17T06:52:43.485Z,11.37
2019-05-17T06:55:12.862Z,11.38
2019-05-17T06:57:43.251Z,11.43
2019-05-17T07:00:18.216Z,11.42
2019-05-17T07:02:42.363Z,11.56
2019-05-17T07:05:13.651Z,11.53
2019-05-17T07:07:42.163Z,12.01
2019-05-17T07:10:11.253Z,11.70
2019-05-17T07:12:54.498Z,11.83
2019-05-17T07:15:10.823Z,11.90
2019-05-17T07:17:39.983Z,11.76
2019-05-17T07:20:10.448Z,12.11
2019-05-17T07:22:40.833Z,11.97
2019-05-17T07:25:10.847Z,11.70
2019-05-17T07:27:45.407Z,11.85
2019-05-17T07:30:10.320Z,12.50
2019-05-17T07:32:40.542Z,12.38
2019-05-17T07:35:10.690Z,12.02
2019-05-17T07:37:39.755Z,11.80
2019-05-17T07:40:10.736Z,11.82
2019-05-17T07:42:39.727Z,11.87
2019-05-17T07:45:10.035Z,12.17
2019-05-17T07:47:40.410Z,11.84
2019-05-17T07:50:11.320Z,11.69
2019-05-17T07:52:40.109Z,11.87
2019-05-17T07:55:10.762Z,11.90
2019-05-17T07:57:41.034Z,12.05
2019-05-17T08:00:10.400Z,11.98
2019-05-17T08:02:40.073Z,12.24
2019-05-17T08:05:10.065Z,12.16
2019-05-17T08:07:40.542Z,12.16
2019-05-17T08:10:11.091Z,12.26
2019-05-17T08:12:40.524Z,12.12
2019-05-17T08:15:10.739Z,12.30
2019-05-17T08:17:40.123Z,12.25
2019-05-17T08:20:10.069Z,12.20
2019-05-17T08:22:39.830Z,12.05
2019-05-17T08:25:10.185Z,12.57
2019-05-17T08:27:40.559Z,12.66
2019-05-17T08:30:10.440Z,12.74
2019-05-17T08:32:40.264Z,12.67
2019-05-17T08:35:11.401Z,12.97
2019-05-17T08:37:42.220Z,12.85
2019-05-17T08:40:10.885Z,13.26
2019-05-17T08:42:40.609Z,13.43
2019-05-17T08:45:09.974Z,13.54
2019-05-17T08:47:39.754Z,13.78
2019-05-17T08:50:10.920Z,13.77
2019-05-17T08:52:40.323Z,13.90
2019-05-17T08:55:09.742Z,14.65
2019-05-17T08:57:40.133Z,15.24
2019-05-17T09:00:10.531Z,15.81
2019-05-17T09:02:40.767Z,16.04
2019-05-17T09:05:09.904Z,15.80
2019-05-17T09:07:40.100Z,15.94
2019-05-17T09:10:10.049Z,15.75
2019-05-17T09:12:40.936Z,15.87
2019-05-17T09:15:10.057Z,16.76
2019-05-17T09:17:39.588Z,19.03
2019-05-17T09:20:10.692Z,20.80
2019-05-17T09:22:39.648Z,19.49
2019-05-17T09:25:12.289Z,18.55
2019-05-17T09:27:39.686Z,18.52
2019-05-17T09:30:09.464Z,21.87
2019-05-17T09:32:40.300Z,22.27
2019-05-17T09:35:10.025Z,23.11
2019-05-17T09:37:41.015Z,20.53
2019-05-17T09:40:09.648Z,18.80
2019-05-17T09:42:40.778Z,17.84
2019-05-17T09:45:09.624Z,18.29
2019-05-17T09:47:39.661Z,18.70
2019-05-17T09:50:09.931Z,18.87
2019-05-17T09:52:40.493Z,19.14
2019-05-17T09:55:09.921Z,19.91
2019-05-17T09:57:40.786Z,19.82
2019-05-17T10:00:10.052Z,20.22
2019-05-17T10:02:40.183Z,20.11
2019-05-17T10:05:10.652Z,20.17
2019-05-17T10:07:40.332Z,19.56
2019-05-17T10:10:10.461Z,19.30
2019-05-17T10:12:40.503Z,21.38
2019-05-17T10:15:10.007Z,22.46
2019-05-17T10:17:38.909Z,22.14
2019-05-17T10:20:07.422Z,23.91
2019-05-17T10:22:35.927Z,23.31
2019-05-17T10:25:04.596Z,22.32
2019-05-17T10:27:33.528Z,21.88
2019-05-17T10:30:02.087Z,22.64
2019-05-17T10:32:31.085Z,23.94
2019-05-17T10:35:00.324Z,22.79
2019-05-17T10:37:30.297Z,24.28
2019-05-17T10:39:59.271Z,22.47
2019-05-17T10:42:30.506Z,20.71
2019-05-17T10:44:59.952Z,19.77
2019-05-17T10:47:30.169Z,20.05
2019-05-17T10:49:58.585Z,20.46
2019-05-17T10:52:29.760Z,21.24
2019-05-17T10:54:59.604Z,23.06
2019-05-17T10:57:30.082Z,21.47
2019-05-17T10:59:59.238Z,21.88
2019-05-17T11:02:30.207Z,21.84
2019-05-17T11:05:00.851Z,20.71
2019-05-17T11:07:28.385Z,20.58
2019-05-17T11:09:59.904Z,21.29
2019-05-17T11:12:27.173Z,21.97
2019-05-17T11:15:09.703Z,21.42
2019-05-17T11:17:25.941Z,21.03
2019-05-17T11:19:54.771Z,21.04
2019-05-17T11:22:23.268Z,20.83
2019-05-17T11:24:51.786Z,21.80
2019-05-17T11:27:20.339Z,22.45
2019-05-17T11:29:48.831Z,23.35
2019-05-17T11:32:17.715Z,21.32
2019-05-17T11:34:46.292Z,21.14
2019-05-17T11:37:14.830Z,21.33
2019-05-17T11:39:43.344Z,20.86
2019-05-17T11:42:11.863Z,19.83
2019-05-17T11:44:40.395Z,20.24
2019-05-17T11:47:08.892Z,20.98
2019-05-17T11:49:37.392Z,21.17
2019-05-17T11:52:05.911Z,22.04
2019-05-17T11:54:34.460Z,22.72
2019-05-17T11:57:03.054Z,21.51
2019-05-17T11:59:31.575Z,20.43
2019-05-17T12:02:00.098Z,21.29
2019-05-17T12:04:28.603Z,20.14
2019-05-17T12:06:57.154Z,19.56
2019-05-17T12:09:36.963Z,19.75
2019-05-17T12:11:56.147Z,19.80
2019-05-17T12:14:24.770Z,19.65
2019-05-17T12:16:53.626Z,19.57
2019-05-17T12:19:22.144Z,19.54
2019-05-17T12:21:50.675Z,19.66
2019-05-17T12:24:19.229Z,19.60
2019-05-17T12:26:47.780Z,19.69
2019-05-17T12:29:16.353Z,19.40
2019-05-17T12:31:44.856Z,19.53
2019-05-17T12:34:13.341Z,19.96
2019-05-17T12:36:41.856Z,19.43
2019-05-17T12:39:10.359Z,19.73
2019-05-17T12:41:39.096Z,20.19
2019-05-17T12:44:07.608Z,20.55
2019-05-17T12:46:36.124Z,19.72
2019-05-17T12:49:04.712Z,19.90
2019-05-17T12:51:33.304Z,20.03
2019-05-17T12:54:01.895Z,20.53
2019-05-17T12:56:30.400Z,22.21
2019-05-17T12:58:58.916Z,22.45
2019-05-17T13:01:27.426Z,23.29
2019-05-17T13:03:55.929Z,23.69
2019-05-17T13:06:24.487Z,23.71
2019-05-17T13:08:53.082Z,23.50
2019-05-17T13:11:21.592Z,21.77
2019-05-17T13:13:50.157Z,21.57
2019-05-17T13:16:19.452Z,21.90
2019-05-17T13:18:48.045Z,22.60
2019-05-17T13:21:16.545Z,21.28
2019-05-17T13:23:45.088Z,20.83
2019-05-17T13:26:13.572Z,20.41
2019-05-17T13:28:42.087Z,20.29
2019-05-17T13:31:10.813Z,21.48
2019-05-17T13:33:39.348Z,21.44
2019-05-17T13:36:07.857Z,21.48
2019-05-17T13:38:36.361Z,21.55
2019-05-17T13:41:04.863Z,21.91
2019-05-17T13:43:33.462Z,22.40
2019-05-17T13:46:02.375Z,22.51
2019-05-17T13:48:30.942Z,22.96
2019-05-17T13:50:59.504Z,22.95
2019-05-17T13:53:28.075Z,22.05
2019-05-17T13:55:57.050Z,22.20
2019-05-17T13:58:25.601Z,21.25
2019-05-17T14:00:54.093Z,21.77
2019-05-17T14:03:22.619Z,22.01
2019-05-17T14:05:51.121Z,22.28
2019-05-17T14:08:19.631Z,21.52
2019-05-17T14:10:48.149Z,21.27
2019-05-17T14:13:16.951Z,22.32
2019-05-17T14:15:45.734Z,23.85
2019-05-17T14:18:14.232Z,24.20
2019-05-17T14:20:42.842Z,23.12
2019-05-17T14:23:11.345Z,22.72
2019-05-17T14:25:39.859Z,21.54
2019-05-17T14:28:11.250Z,21.31
2019-05-17T14:30:38.637Z,21.87
2019-05-17T14:33:07.488Z,21.59
2019-05-17T14:35:36.055Z,21.73
2019-05-17T14:38:04.550Z,22.29
2019-05-17T14:41:04.225Z,22.70
2019-05-17T14:43:03.343Z,23.35
2019-05-17T14:45:31.963Z,22.66
2019-05-17T14:48:00.469Z,21.71
2019-05-17T14:50:28.962Z,20.98
2019-05-17T14:52:57.765Z,20.57
2019-05-17T14:55:26.267Z,20.31
2019-05-17T14:57:54.761Z,20.69
2019-05-17T15:00:23.276Z,21.26
2019-05-17T15:02:51.785Z,21.12
2019-05-17T15:05:20.599Z,22.03
2019-05-17T15:07:49.097Z,21.83
2019-05-17T15:10:17.620Z,21.82
2019-05-17T15:12:46.129Z,21.50
2019-05-17T15:15:14.636Z,21.12
2019-05-17T15:17:43.210Z,21.53
2019-05-17T15:20:11.740Z,21.56
2019-05-17T15:22:40.286Z,21.05
2019-05-17T15:25:09.372Z,21.36
2019-05-17T15:27:38.187Z,21.91
2019-05-17T15:30:07.013Z,21.29
2019-05-17T15:32:35.546Z,20.96
2019-05-17T15:35:04.437Z,20.60
2019-05-17T15:37:33.006Z,21.43
2019-05-17T15:40:01.540Z,21.27
2019-05-17T15:42:43.203Z,21.58
2019-05-17T15:45:00.719Z,22.21
2019-05-17T15:47:29.322Z,22.27
2019-05-17T15:49:58.234Z,22.41
2019-05-17T15:52:27.043Z,22.14
2019-05-17T15:54:55.762Z,21.38
2019-05-17T15:57:24.640Z,21.58
2019-05-17T15:59:53.158Z,22.01
2019-05-17T16:02:22.809Z,21.50
2019-05-17T16:04:51.548Z,21.61
2019-05-17T16:07:20.073Z,21.82
2019-05-17T16:09:48.660Z,21.59
2019-05-17T16:12:17.236Z,20.97
2019-05-17T16:14:45.739Z,20.73
2019-05-17T16:17:14.256Z,20.89
2019-05-17T16:19:42.837Z,20.57
2019-05-17T16:22:11.471Z,20.27
2019-05-17T16:24:39.999Z,20.37
2019-05-17T16:27:08.602Z,20.14
2019-05-17T16:29:37.155Z,20.42
2019-05-17T16:32:05.928Z,20.25
2019-05-17T16:34:34.524Z,20.17
2019-05-17T16:37:03.501Z,20.13
2019-05-17T16:40:33.680Z,20.18
2019-05-17T16:43:16.754Z,20.09
2019-05-17T16:45:32.788Z,20.01
2019-05-17T16:48:01.315Z,19.82
2019-05-17T16:50:30.048Z,19.73
2019-05-17T16:53:06.036Z,19.59
2019-05-17T16:55:28.833Z,19.76
2019-05-17T16:57:57.360Z,19.83
2019-05-17T17:00:27.566Z,19.80
2019-05-17T17:02:56.452Z,19.85
2019-05-17T17:05:24.956Z,20.27
2019-05-17T17:07:53.453Z,19.91
2019-05-17T17:10:21.962Z,19.87
2019-05-17T17:12:50.476Z,19.72
2019-05-17T17:15:18.983Z,19.71
2019-05-17T17:17:47.491Z,20.02
2019-05-17T17:20:16.015Z,19.93
2019-05-17T17:22:44.552Z,20.02
2019-05-17T17:25:13.063Z,19.99
2019-05-17T17:27:41.567Z,20.42
2019-05-17T17:30:10.230Z,20.44
2019-05-17T17:32:38.724Z,20.13
2019-05-17T17:35:07.261Z,19.84
2019-05-17T17:37:35.752Z,19.86
2019-05-17T17:40:04.308Z,20.06
2019-05-17T17:42:32.811Z,20.16
2019-05-17T17:45:01.343Z,20.26
2019-05-17T17:47:29.838Z,20.36
2019-05-17T17:49:58.362Z,20.17
2019-05-17T17:52:26.881Z,20.21
2019-05-17T17:54:55.395Z,19.95
2019-05-17T17:57:23.890Z,20.02
2019-05-17T17:59:55.532Z,20.13
2019-05-17T18:02:22.629Z,20.33
2019-05-17T18:04:51.164Z,19.97
2019-05-17T18:07:19.706Z,20.19
2019-05-17T18:09:48.216Z,20.30
2019-05-17T18:12:16.725Z,20.48
2019-05-17T18:14:45.281Z,20.61
2019-05-17T18:17:13.797Z,20.67
2019-05-17T18:19:42.324Z,20.71
2019-05-17T18:22:10.836Z,20.92
2019-05-17T18:24:39.685Z,20.88
2019-05-17T18:27:08.177Z,20.82
2019-05-17T18:29:36.690Z,20.80
2019-05-17T18:32:05.198Z,20.60
2019-05-17T18:34:33.741Z,20.48
2019-05-17T18:37:02.316Z,20.44
2019-05-17T18:39:30.900Z,20.35
2019-05-17T18:41:59.950Z,20.29
2019-05-17T18:44:28.470Z,20.23
2019-05-17T18:46:57.043Z,20.14
2019-05-17T18:49:25.638Z,20.06
2019-05-17T18:51:54.141Z,20.14
2019-05-17T18:54:22.699Z,20.18
2019-05-17T18:56:51.214Z,20.18
2019-05-17T18:59:20.062Z,20.06
2019-05-17T19:01:48.586Z,20.03
2019-05-17T19:04:17.079Z,20.09
2019-05-17T19:06:45.649Z,20.18
2019-05-17T19:09:14.155Z,20.25
2019-05-17T19:11:45.056Z,20.26
2019-05-17T19:14:12.904Z,20.29
2019-05-17T19:16:41.443Z,20.25
2019-05-17T19:19:09.939Z,20.31
2019-05-17T19:21:38.501Z,20.36
2019-05-17T19:24:07.307Z,20.37
2019-05-17T19:26:35.820Z,20.38
2019-05-17T19:29:04.321Z,20.36
2019-05-17T19:31:32.834Z,20.27
2019-05-17T19:34:01.342Z,20.26
2019-05-17T19:36:29.853Z,20.31
2019-05-17T19:38:58.359Z,20.25
2019-05-17T19:41:26.955Z,20.09
2019-05-17T19:43:55.445Z,19.93
2019-05-17T19:46:23.948Z,19.84
2019-05-17T19:48:52.449Z,19.66
2019-05-17T19:51:20.972Z,19.40
2019-05-17T19:53:49.486Z,19.25
2019-05-17T19:56:17.991Z,19.18
2019-05-17T19:58:46.493Z,19.25
2019-05-17T20:01:15.007Z,19.16
2019-05-17T20:03:43.565Z,19.19
2019-05-17T20:06:12.408Z,19.36
2019-05-17T20:08:40.935Z,19.28
2019-05-17T20:11:09.520Z,19.30
2019-05-17T20:13:38.008Z,19.36
2019-05-17T20:16:06.624Z,19.41
2019-05-17T20:18:35.159Z,19.46
2019-05-17T20:21:03.664Z,19.49
2019-05-17T20:23:32.436Z,19.54
2019-05-17T20:26:01.525Z,19.57
2019-05-17T20:28:30.987Z,19.63
2019-05-17T20:31:00.172Z,19.60
2019-05-17T20:33:28.657Z,19.59
2019-05-17T20:35:57.211Z,19.61
2019-05-17T20:38:25.787Z,19.55
2019-05-17T20:40:54.304Z,19.51
2019-05-17T20:43:23.141Z,19.56
2019-05-17T20:45:51.640Z,19.62
2019-05-17T20:48:20.123Z,19.64
2019-05-17T20:50:48.616Z,19.65
2019-05-17T20:53:19.222Z,19.69
2019-05-17T20:55:47.328Z,19.77
2019-05-17T20:58:15.905Z,19.83
2019-05-17T21:00:44.464Z,19.67
2019-05-17T21:03:13.984Z,19.59
2019-05-17T21:05:42.636Z,19.61
2019-05-17T21:08:11.140Z,19.66
2019-05-17T21:10:39.642Z,19.73
2019-05-17T21:13:08.171Z,19.24
2019-05-17T21:15:47.452Z,18.86
2019-05-17T21:18:07.526Z,18.78
2019-05-17T21:20:36.112Z,18.90
2019-05-17T21:23:04.606Z,18.96
2019-05-17T21:25:33.111Z,18.69
2019-05-17T21:28:01.615Z,18.71
2019-05-17T21:30:30.128Z,18.65
2019-05-17T21:32:58.636Z,18.70
2019-05-17T21:35:27.173Z,18.64
2019-05-17T21:37:55.892Z,18.62
2019-05-17T21:40:24.410Z,18.65
2019-05-17T21:42:52.927Z,18.62
2019-05-17T21:45:21.482Z,18.47
2019-05-17T21:47:49.999Z,17.87
2019-05-17T21:50:18.896Z,17.66
2019-05-17T21:52:47.417Z,17.26
2019-05-17T21:55:15.927Z,16.95
2019-05-17T21:57:44.756Z,16.93
2019-05-17T22:00:13.606Z,16.87
2019-05-17T22:02:42.580Z,16.88
2019-05-17T22:05:11.358Z,16.86
2019-05-17T22:07:40.464Z,16.84
2019-05-17T22:10:09.340Z,16.84
2019-05-17T22:12:38.218Z,16.82
2019-05-17T22:15:06.739Z,16.83
2019-05-17T22:17:35.363Z,16.60
2019-05-17T22:20:03.908Z,16.52
2019-05-17T22:22:32.723Z,16.48
2019-05-17T22:25:01.211Z,16.37
2019-05-17T22:27:29.719Z,16.36
2019-05-17T22:29:58.242Z,16.32
2019-05-17T22:32:26.737Z,16.39
2019-05-17T22:34:55.709Z,16.46
2019-05-17T22:37:24.203Z,16.51
2019-05-17T22:39:53.102Z,16.54
2019-05-17T22:42:21.701Z,16.59
2019-05-17T22:44:50.238Z,16.64
2019-05-17T22:47:18.742Z,16.72
2019-05-17T22:49:47.527Z,16.72
2019-05-17T22:52:16.040Z,16.73
2019-05-17T22:54:44.621Z,16.70
2019-05-17T22:57:13.115Z,16.64
2019-05-17T22:59:41.659Z,16.58
2019-05-17T23:02:10.176Z,16.45
2019-05-17T23:04:38.697Z,16.58
2019-05-17T23:07:07.527Z,16.63
2019-05-17T23:09:36.043Z,16.68
2019-05-17T23:12:04.823Z,16.73
2019-05-17T23:14:33.369Z,16.83
2019-05-17T23:17:01.871Z,16.91
2019-05-17T23:19:30.397Z,16.96
2019-05-17T23:21:58.940Z,16.98
2019-05-17T23:24:27.489Z,17.02
2019-05-17T23:26:55.997Z,17.05
2019-05-17T23:29:24.528Z,17.08
2019-05-17T23:31:53.288Z,17.02
2019-05-17T23:34:21.849Z,16.98
2019-05-17T23:36:50.355Z,16.95
2019-05-17T23:39:18.864Z,16.94
2019-05-17T23:41:47.378Z,16.98
2019-05-17T23:44:15.956Z,16.95
2019-05-17T23:46:44.479Z,16.93
2019-05-17T23:49:13.000Z,16.91
2019-05-17T23:51:41.615Z,16.90
2019-05-17T23:54:10.105Z,16.76
2019-05-17T23:56:38.684Z,16.68
2019-05-17T23:59:07.256Z,16.62
